Time;durP1;ratioP1;P1;durP2;ratioP2;P2;SDS_P1;SDS_P2;PMS_P1;PMS_P2;Temp;Humidity;BMP_temperature;BMP_pressure;BME280_temperature;BME280_humidity;BME280_pressure;Samples;Min_cycle;Max_cycle;Signal;HPM_P1;HPM_P2
2022/05/16 00:01:43;;;;;;;10.00;3.00;;;;;;;11.36;62.20;99706.75;8203676;28;20114;-71
2022/05/16 00:05:45;;;;;;;12.60;3.17;;;;;;;11.41;61.88;99714.75;8204097;28;20415;-71
2022/05/16 00:09:45;;;;;;;10.10;3.10;;;;;;;11.43;61.96;99712.53;8203927;28;20123;-71
2022/05/16 00:13:47;;;;;;;9.77;3.45;;;;;;;11.44;61.82;99719.56;8203868;28;20062;-72
2022/05/16 00:17:48;;;;;;;16.65;4.15;;;;;;;11.46;61.39;99721.16;8217329;28;20394;-71
2022/05/16 00:21:49;;;;;;;18.13;3.92;;;;;;;11.43;61.23;99726.06;8203433;28;20047;-71
2022/05/16 00:25:50;;;;;;;13.82;3.67;;;;;;;11.41;61.39;99725.56;8217150;28;20546;-71
2022/05/16 00:29:51;;;;;;;9.18;3.45;;;;;;;11.42;61.34;99720.94;8202689;28;20059;-72
2022/05/16 00:33:51;;;;;;;11.18;3.15;;;;;;;11.40;61.34;99721.25;8203285;28;20051;-71
2022/05/16 00:37:53;;;;;;;10.95;3.55;;;;;;;11.39;61.55;99716.94;8202667;28;20062;-72
2022/05/16 00:41:54;;;;;;;11.55;3.50;;;;;;;11.39;61.48;99722.34;8202739;28;20052;-70
2022/05/16 00:45:55;;;;;;;9.32;2.72;;;;;;;11.40;61.52;99718.56;8203051;28;20516;-72
2022/05/16 00:49:56;;;;;;;13.00;3.78;;;;;;;11.41;61.25;99714.75;8201346;29;20075;-72
2022/05/16 00:54:02;;;;;;;20.27;4.95;;;;;;;11.37;61.63;99724.53;8201170;29;20043;-72
2022/05/16 00:58:14;;;;;;;20.85;6.85;;;;;;;11.36;61.54;99722.97;8184833;28;20130;-72
2022/05/16 01:06:40;;;;;;;17.75;7.70;;;;;;;11.35;61.27;99715.16;8202337;28;20058;-73
2022/05/16 01:10:41;;;;;;;24.38;7.80;;;;;;;11.35;61.12;99715.94;8202071;28;20917;-73
2022/05/16 01:15:09;;;;;;;16.98;7.00;;;;;;;11.32;60.93;99711.13;8200848;28;20059;-71
2022/05/16 01:19:10;;;;;;;20.58;6.43;;;;;;;11.34;60.87;99714.34;8201640;28;20055;-72
2022/05/16 01:23:14;;;;;;;13.10;5.65;;;;;;;11.36;60.45;99712.16;8201161;28;20137;-71
2022/05/16 01:27:15;;;;;;;14.73;5.20;;;;;;;11.38;60.45;99720.75;8200940;28;20059;-71
2022/05/16 01:31:19;;;;;;;13.00;4.63;;;;;;;11.36;60.11;99712.16;8183209;29;20056;-73
2022/05/16 01:35:29;;;;;;;15.27;4.90;;;;;;;11.37;60.29;99729.97;8167746;29;20563;-71
2022/05/16 01:39:29;;;;;;;13.50;4.25;;;;;;;11.35;60.26;99726.75;8169128;29;20054;-71
2022/05/16 01:43:38;;;;;;;14.27;4.35;;;;;;;11.31;60.19;99731.19;8179681;29;20443;-71
2022/05/16 01:47:39;;;;;;;13.10;4.03;;;;;;;11.26;60.28;99735.88;8200709;28;20043;-73
2022/05/16 01:51:40;;;;;;;12.50;3.70;;;;;;;11.22;60.45;99730.22;8214506;28;20138;-71
2022/05/16 01:55:41;;;;;;;19.58;3.90;;;;;;;11.20;60.64;99734.34;8200562;28;20058;-71
2022/05/16 01:59:42;;;;;;;13.63;4.25;;;;;;;11.17;60.89;99724.91;8200479;28;20106;-71
2022/05/16 02:03:45;;;;;;;10.65;3.35;;;;;;;11.15;61.19;99721.72;8214489;28;20507;-70
2022/05/16 02:07:48;;;;;;;12.02;3.67;;;;;;;11.14;61.45;99730.94;8200724;28;20142;-71
2022/05/16 02:11:49;;;;;;;8.20;2.92;;;;;;;11.14;61.80;99725.53;8201202;28;20047;-72
2022/05/16 02:15:50;;;;;;;10.45;3.30;;;;;;;11.11;62.16;99731.50;8213245;28;20495;-71
2022/05/16 02:19:51;;;;;;;9.13;3.10;;;;;;;11.06;62.14;99728.09;8215006;28;20054;-71
2022/05/16 02:28:14;;;;;;;9.18;3.20;;;;;;;10.88;62.46;99743.25;8197491;29;20058;-72
2022/05/16 02:32:15;;;;;;;12.85;3.35;;;;;;;10.76;62.75;99745.63;8199709;28;20164;-72
2022/05/16 02:36:16;;;;;;;10.52;3.38;;;;;;;10.66;63.23;99734.97;8199259;28;20488;-72
2022/05/16 02:40:17;;;;;;;9.20;3.25;;;;;;;10.54;63.77;99738.91;8200428;28;20081;-72
2022/05/16 02:44:18;;;;;;;12.55;3.03;;;;;;;10.47;64.12;99738.47;8200105;28;20062;-72
2022/05/16 02:48:19;;;;;;;10.90;3.03;;;;;;;10.39;64.35;99739.13;8200124;28;20058;-72
2022/05/16 02:52:20;;;;;;;9.15;3.50;;;;;;;10.28;64.70;99740.38;8217671;28;20055;-71
2022/05/16 02:56:21;;;;;;;8.70;3.20;;;;;;;10.16;65.15;99731.91;8205376;28;20400;-72
2022/05/16 03:00:22;;;;;;;13.52;3.60;;;;;;;10.08;65.76;99737.91;8205741;28;20138;-72
2022/05/16 03:04:23;;;;;;;10.48;2.80;;;;;;;9.99;66.07;99732.34;8203935;28;20476;-71
2022/05/16 03:08:24;;;;;;;11.55;3.38;;;;;;;9.92;66.56;99725.72;8205068;28;20051;-72
2022/05/16 03:12:25;;;;;;;10.75;3.67;;;;;;;9.86;66.68;99721.47;8206039;28;20055;-71
2022/05/16 03:16:26;;;;;;;10.95;3.40;;;;;;;9.83;66.46;99724.75;8205748;28;20066;-71
2022/05/16 03:20:28;;;;;;;13.93;4.10;;;;;;;9.74;66.88;99725.38;8205270;28;20066;-72
2022/05/16 03:24:28;;;;;;;10.68;3.58;;;;;;;9.68;67.15;99729.22;8205038;28;20066;-71
2022/05/16 03:28:30;;;;;;;10.35;3.30;;;;;;;9.59;67.62;99717.47;8196674;28;20110;-71
2022/05/16 03:32:30;;;;;;;8.07;3.42;;;;;;;9.52;68.21;99717.00;8182181;28;20051;-70
2022/05/16 03:36:31;;;;;;;13.13;4.20;;;;;;;9.50;68.23;99707.59;8181939;28;20051;-72
2022/05/16 03:40:42;;;;;;;10.02;3.30;;;;;;;9.49;67.82;99706.81;8186241;28;20423;-70
2022/05/16 03:44:43;;;;;;;12.60;3.65;;;;;;;9.52;67.80;99705.41;8202973;28;20051;-72
2022/05/16 03:48:44;;;;;;;6.72;2.92;;;;;;;9.58;68.28;99699.69;8204357;28;20051;-71
2022/05/16 03:52:45;;;;;;;7.78;3.50;;;;;;;9.67;68.03;99711.47;8203949;28;20047;-71
2022/05/16 03:56:46;;;;;;;10.77;3.20;;;;;;;9.72;68.49;99716.78;8203961;28;20058;-72
2022/05/16 04:00:47;;;;;;;8.57;3.65;;;;;;;9.72;68.39;99711.41;8202681;28;20043;-71
2022/05/16 04:04:48;;;;;;;9.00;3.47;;;;;;;9.77;68.44;99709.72;8201450;28;20423;-72
2022/05/16 04:08:49;;;;;;;16.65;3.50;;;;;;;9.83;68.66;99711.25;8201553;28;20050;-71
2022/05/16 04:12:51;;;;;;;16.08;3.47;;;;;;;9.93;69.07;99705.75;8216216;28;20086;-71
2022/05/16 04:16:52;;;;;;;10.48;2.50;;;;;;;10.00;69.06;99711.56;8198141;28;20207;-71
2022/05/16 04:20:53;;;;;;;10.18;2.85;;;;;;;10.08;69.38;99713.63;8202451;28;20051;-71
2022/05/16 04:24:54;;;;;;;11.13;2.33;;;;;;;10.17;68.93;99711.91;8216353;28;20050;-72
2022/05/16 04:28:57;;;;;;;8.57;2.50;;;;;;;10.35;67.92;99713.81;8202787;28;20459;-71
2022/05/16 04:32:58;;;;;;;8.85;1.75;;;;;;;10.57;67.13;99715.94;8202874;28;20439;-72
2022/05/16 04:36:59;;;;;;;9.02;2.38;;;;;;;10.79;66.24;99718.00;8202388;28;20054;-72
2022/05/16 04:45:21;;;;;;;;;;;;;;;11.16;65.01;99723.31;8202154;29;20047;-72
2022/05/16 04:49:22;;;;;;;9.23;1.80;;;;;;;11.34;64.10;99725.16;8201850;28;19923;-73
2022/05/16 04:53:22;;;;;;;8.70;1.98;;;;;;;11.53;63.85;99721.56;8201698;28;20174;-71
2022/05/16 04:57:23;;;;;;;8.15;1.55;;;;;;;11.71;63.42;99724.19;8201745;28;20055;-72
2022/05/16 05:01:24;;;;;;;5.65;2.00;;;;;;;11.85;62.97;99724.19;8201243;28;20059;-72
2022/05/16 05:05:26;;;;;;;11.38;2.22;;;;;;;12.01;62.46;99725.47;8201624;28;20503;-72
2022/05/16 05:09:26;;;;;;;6.63;1.88;;;;;;;12.14;62.21;99727.38;8201025;28;20094;-72
2022/05/16 05:17:48;;;;;;;8.15;1.90;;;;;;;12.42;61.87;99721.91;8084578;29;20509;-72
2022/05/16 05:21:50;;;;;;;9.25;2.10;;;;;;;12.52;61.55;99727.09;8072028;29;20056;-71
2022/05/16 05:25:51;;;;;;;6.10;1.63;;;;;;;12.61;61.18;99725.25;8071566;29;20048;-73
2022/05/16 05:29:54;;;;;;;9.85;2.33;;;;;;;12.70;60.82;99724.19;8071552;29;20057;-72
2022/05/16 05:33:55;;;;;;;5.18;1.83;;;;;;;12.81;60.56;99730.19;8056063;29;20053;-72
2022/05/16 05:37:57;;;;;;;9.32;2.45;;;;;;;12.91;60.73;99735.34;8086850;29;20060;-71
2022/05/16 05:41:58;;;;;;;23.30;2.63;;;;;;;13.09;60.06;99736.28;8056389;29;20490;-72
2022/05/16 05:46:02;;;;;;;7.03;1.77;;;;;;;13.25;59.66;99739.44;8040687;29;20053;-73
2022/05/16 05:50:05;;;;;;;9.60;1.73;;;;;;;13.38;59.14;99738.53;8040392;29;20473;-72
2022/05/16 05:54:06;;;;;;;8.57;2.08;;;;;;;13.51;58.97;99745.78;8072850;29;20520;-73
2022/05/16 05:58:08;;;;;;;8.10;1.88;;;;;;;13.62;58.85;99738.97;8106162;29;20112;-71
2022/05/16 06:02:09;;;;;;;5.85;2.10;;;;;;;13.78;58.54;99740.16;8105706;29;20083;-72
2022/05/16 06:06:10;;;;;;;6.78;1.92;;;;;;;13.99;57.71;99745.81;8105734;29;20553;-72
2022/05/16 06:10:12;;;;;;;8.90;2.30;;;;;;;14.09;57.79;99742.00;8105741;29;20536;-73
2022/05/16 06:14:13;;;;;;;5.60;1.95;;;;;;;14.15;57.87;99748.88;8103919;29;20053;-72
2022/05/16 06:18:14;;;;;;;11.07;2.30;;;;;;;14.18;57.45;99745.50;8105672;29;20059;-72
2022/05/16 06:22:15;;;;;;;14.25;2.55;;;;;;;14.33;57.52;99747.78;8105643;29;20053;-73
2022/05/16 06:26:16;;;;;;;10.05;2.15;;;;;;;14.40;57.75;99736.47;8124801;29;20460;-72
2022/05/16 06:30:19;;;;;;;6.15;2.03;;;;;;;14.47;57.90;99734.88;8156446;29;20107;-72
2022/05/16 06:34:20;;;;;;;9.32;2.00;;;;;;;14.58;57.78;99733.47;8142909;29;20064;-73
2022/05/16 06:38:23;;;;;;;8.80;1.95;;;;;;;14.69;57.63;99726.59;8148322;29;20059;-73
2022/05/16 06:42:24;;;;;;;8.73;1.90;;;;;;;14.88;56.67;99730.88;8205737;28;20059;-72
2022/05/16 06:46:25;;;;;;;7.10;2.15;;;;;;;14.96;56.16;99738.25;8205411;28;20047;-71
2022/05/16 06:50:26;;;;;;;6.88;1.98;;;;;;;15.08;55.80;99732.91;8205783;28;20047;-72
2022/05/16 06:54:27;;;;;;;5.68;2.00;;;;;;;15.16;55.20;99737.56;8219195;28;20052;-72
2022/05/16 06:58:29;;;;;;;13.27;2.25;;;;;;;15.28;54.64;99745.06;8205333;28;20058;-72
2022/05/16 07:02:30;;;;;;;8.80;1.80;;;;;;;15.38;54.54;99745.50;8186852;29;20562;-72
2022/05/16 07:06:31;;;;;;;7.30;2.20;;;;;;;15.51;54.36;99743.69;8205008;28;20055;-73
2022/05/16 07:10:32;;;;;;;4.65;1.73;;;;;;;15.62;53.24;99740.31;8204826;28;20066;-72
2022/05/16 07:14:34;;;;;;;8.10;2.33;;;;;;;15.75;52.92;99738.53;8204880;28;20083;-72
2022/05/16 07:18:35;;;;;;;10.05;2.17;;;;;;;15.92;52.74;99749.31;8218442;28;20055;-72
2022/05/16 07:22:41;;;;;;;9.40;1.98;;;;;;;16.06;52.01;99749.09;8234567;28;20059;-72
2022/05/16 07:31:02;;;;;;;8.77;2.08;;;;;;;16.36;50.80;99747.94;8186133;29;20059;-73
2022/05/16 07:35:04;;;;;;;7.00;1.80;;;;;;;16.53;49.18;99746.22;8202066;28;20051;-72
2022/05/16 07:39:06;;;;;;;5.50;1.70;;;;;;;16.67;49.84;99738.59;8184507;28;20515;-73
2022/05/16 07:43:07;;;;;;;6.82;1.95;;;;;;;16.79;49.13;99744.91;8185701;29;20047;-73
2022/05/16 07:47:08;;;;;;;4.72;1.60;;;;;;;16.85;48.34;99731.84;8203907;28;20051;-73
2022/05/16 07:51:09;;;;;;;6.65;2.10;;;;;;;16.99;48.26;99737.81;8203679;28;20467;-72
2022/05/16 07:55:15;;;;;;;7.60;2.08;;;;;;;17.19;48.27;99731.50;8203680;28;20043;-74
2022/05/16 07:59:16;;;;;;;9.75;1.98;;;;;;;17.29;48.09;99735.72;8203834;28;20055;-73
2022/05/16 08:03:19;;;;;;;6.18;1.60;;;;;;;17.46;47.83;99730.09;8203029;28;20047;-72
2022/05/16 08:07:20;;;;;;;15.45;2.40;;;;;;;17.54;46.92;99742.06;8203217;28;20051;-72
2022/05/16 08:11:21;;;;;;;8.52;1.85;;;;;;;17.65;46.39;99743.25;8203089;28;20061;-71
2022/05/16 08:15:22;;;;;;;6.55;2.10;;;;;;;17.80;46.12;99734.38;8202891;28;20055;-71
2022/05/16 08:19:24;;;;;;;21.05;2.33;;;;;;;17.94;45.06;99734.81;8216765;28;20047;-72
2022/05/16 08:23:28;;;;;;;5.63;2.00;;;;;;;18.03;45.22;99738.22;8202433;28;20059;-72
2022/05/16 08:27:29;;;;;;;14.40;2.38;;;;;;;18.28;44.64;99732.75;8202442;28;20495;-72
2022/05/16 08:31:30;;;;;;;5.72;1.83;;;;;;;18.46;44.50;99734.06;8202423;28;20055;-72
2022/05/16 08:35:32;;;;;;;11.68;1.98;;;;;;;18.65;44.48;99725.28;8202377;28;20043;-73
2022/05/16 08:39:52;;;;;;;3.45;1.88;;;;;;;18.82;43.43;99742.19;8201845;28;20511;-73
2022/05/16 08:44:07;;;;;;;6.88;1.83;;;;;;;18.84;43.14;99728.97;8200079;29;20094;-72
2022/05/16 08:48:14;;;;;;;9.32;2.13;;;;;;;19.09;43.68;99739.81;8215801;28;20484;-72
2022/05/16 08:52:44;;;;;;;7.50;1.80;;;;;;;19.21;43.41;99737.00;8201780;28;20082;-73
2022/05/16 08:56:46;;;;;;;5.63;1.70;;;;;;;19.26;42.15;99739.47;8201437;28;20102;-72
2022/05/16 09:00:54;;;;;;;8.73;1.70;;;;;;;19.34;42.54;99741.28;8216322;28;20047;-73
2022/05/16 09:05:05;;;;;;;7.43;2.37;;;;;;;19.60;43.74;99738.84;8216160;28;20047;-72
2022/05/16 09:09:12;;;;;;;4.30;1.83;;;;;;;19.77;43.06;99738.47;8201322;28;20361;-74
2022/05/16 09:13:18;;;;;;;8.52;1.90;;;;;;;19.78;42.47;99729.09;8215240;28;20047;-72
2022/05/16 09:17:48;;;;;;;7.40;2.10;;;;;;;19.98;43.18;99735.47;8201076;28;20400;-74
2022/05/16 09:22:13;;;;;;;13.20;1.52;;;;;;;19.97;39.25;99724.84;8215055;28;20571;-72
2022/05/16 09:26:32;;;;;;;4.47;1.77;;;;;;;19.88;40.66;99716.03;8215652;28;20051;-73
2022/05/16 09:30:33;;;;;;;7.57;1.67;;;;;;;20.02;40.09;99705.38;8200593;28;20047;-73
2022/05/16 09:34:34;;;;;;;11.50;2.28;;;;;;;20.20;40.52;99714.78;8200669;28;20138;-72
2022/05/16 09:38:36;;;;;;;5.20;1.58;;;;;;;20.42;41.17;99708.66;8214280;28;20074;-73
2022/05/16 09:42:37;;;;;;;6.72;1.90;;;;;;;20.51;41.31;99720.25;8215651;28;20066;-72
2022/05/16 09:46:43;;;;;;;6.28;1.73;;;;;;;20.51;39.18;99706.53;8199146;29;20106;-73
2022/05/16 09:50:59;;;;;;;6.15;1.80;;;;;;;20.69;39.82;99711.56;8198284;29;20110;-72
2022/05/16 09:55:07;;;;;;;5.25;1.40;;;;;;;21.02;39.94;99714.59;8200472;28;20415;-72
2022/05/16 09:59:11;;;;;;;5.18;1.60;;;;;;;21.23;38.79;99708.72;8200004;28;20128;-72
2022/05/16 10:03:23;;;;;;;6.60;1.77;;;;;;;21.20;38.39;99702.03;8199445;28;20130;-72
2022/05/16 10:07:43;;;;;;;6.28;1.63;;;;;;;21.30;37.75;99709.66;8199969;28;20053;-73
2022/05/16 10:11:51;;;;;;;3.95;2.15;;;;;;;21.45;38.87;99706.00;8199969;28;20055;-73
2022/05/16 10:15:55;;;;;;;4.78;1.67;;;;;;;21.64;37.66;99712.56;8199896;28;20047;-73
2022/05/16 10:20:01;;;;;;;6.55;1.70;;;;;;;21.71;37.69;99701.69;8230219;28;20142;-72
2022/05/16 10:24:07;;;;;;;6.28;2.13;;;;;;;21.69;37.57;99704.00;8197671;28;20047;-74
2022/05/16 10:28:14;;;;;;;6.10;1.73;;;;;;;21.74;38.14;99703.69;8183211;29;20044;-74
2022/05/16 10:37:04;;;;;;;4.20;1.60;;;;;;;21.82;36.66;99702.66;8167730;29;20054;-72
2022/05/16 10:41:11;;;;;;;5.07;1.70;;;;;;;21.84;37.03;99703.06;8168180;29;20516;-74
2022/05/16 10:45:18;;;;;;;5.70;1.75;;;;;;;21.87;36.03;99699.59;8166949;29;20352;-72
2022/05/16 10:49:21;;;;;;;6.55;1.90;;;;;;;22.02;36.73;99695.91;8168299;29;20070;-72
2022/05/16 10:53:56;;;;;;;7.45;1.67;;;;;;;22.05;36.60;99695.16;8149964;29;20583;-72
2022/05/16 10:58:10;;;;;;;5.63;1.90;;;;;;;22.18;35.61;99682.78;8182563;29;20111;-73
2022/05/16 11:02:30;;;;;;;4.50;1.58;;;;;;;22.33;36.76;99679.06;8167998;29;20422;-73
2022/05/16 11:06:58;;;;;;;3.00;1.40;;;;;;;22.51;36.11;99670.25;8167397;29;20056;-73
2022/05/16 11:11:04;;;;;;;5.22;1.60;;;;;;;22.53;34.57;99659.63;8167617;29;20043;-73
2022/05/16 11:15:12;;;;;;;5.97;1.77;;;;;;;22.54;34.57;99661.22;8187979;28;20515;-72
2022/05/16 11:19:44;;;;;;;7.05;1.95;;;;;;;22.77;34.88;99659.19;8173134;29;20431;-72
2022/05/16 11:24:07;;;;;;;3.75;1.42;;;;;;;22.94;34.84;99658.59;8172868;29;20063;-73
2022/05/16 11:28:39;;;;;;;5.70;1.77;;;;;;;23.14;34.61;99651.69;8187230;28;20130;-72
2022/05/16 11:32:58;;;;;;;7.53;1.70;;;;;;;23.23;34.06;99654.13;8172566;29;20423;-73
2022/05/16 11:37:31;;;;;;;4.70;1.75;;;;;;;23.29;33.16;99651.81;8172648;29;20445;-73
2022/05/16 11:42:07;;;;;;;4.97;2.13;;;;;;;23.47;33.82;99655.56;8168329;29;20070;-72
2022/05/16 11:46:39;;;;;;;8.45;2.17;;;;;;;23.75;34.09;99647.47;8168060;29;20048;-73
2022/05/16 11:50:58;;;;;;;4.05;1.50;;;;;;;23.93;33.71;99642.88;8105594;29;20143;-73
2022/05/16 12:04:23;;;;;;;7.93;1.90;;;;;;;23.65;31.49;99617.88;8105175;29;20521;-72
2022/05/16 12:08:39;;;;;;;4.03;1.45;;;;;;;23.89;32.52;99619.22;8089021;29;20060;-73
2022/05/16 12:12:46;;;;;;;6.53;1.60;;;;;;;24.10;33.53;99602.00;8104904;29;20060;-74
2022/05/16 12:17:10;;;;;;;10.35;2.00;;;;;;;24.25;32.22;99606.41;8104966;29;20060;-72
2022/05/16 12:21:19;;;;;;;6.78;1.52;;;;;;;24.00;31.09;99604.28;8104761;29;20056;-74
2022/05/16 12:25:27;;;;;;;3.45;1.50;;;;;;;24.11;31.05;99603.56;8120143;29;20075;-72
2022/05/16 12:29:52;;;;;;;4.32;1.75;;;;;;;24.36;31.75;99593.44;8135147;29;20148;-73
2022/05/16 12:33:53;;;;;;;4.75;1.80;;;;;;;24.18;31.30;99598.09;8167432;29;20592;-72
2022/05/16 12:37:55;;;;;;;8.77;1.60;;;;;;;24.32;31.22;99589.91;8134832;29;20083;-72
2022/05/16 12:42:11;;;;;;;4.72;1.50;;;;;;;24.06;30.64;99584.63;8150919;29;20060;-72
2022/05/16 12:46:32;;;;;;;4.97;1.42;;;;;;;24.25;31.74;99581.56;8166579;29;20369;-73
2022/05/16 12:51:14;;;;;;;6.43;1.38;;;;;;;24.73;31.27;99563.56;8166392;29;20435;-73
2022/05/16 12:55:22;;;;;;;5.03;1.65;;;;;;;24.82;30.29;99561.22;8150766;29;20054;-73
2022/05/16 12:59:53;;;;;;;3.13;1.67;;;;;;;24.76;30.18;99548.97;8169997;29;20047;-73
2022/05/16 13:04:31;;;;;;;11.88;2.05;;;;;;;25.00;30.00;99549.41;8168885;29;20047;-72
2022/05/16 13:08:44;;;;;;;8.63;1.90;;;;;;;24.99;28.77;99542.31;8169566;29;20051;-74
2022/05/16 13:12:59;;;;;;;3.70;1.70;;;;;;;24.95;28.50;99541.53;8169820;29;20079;-73
2022/05/16 13:17:14;;;;;;;6.55;1.73;;;;;;;24.75;28.58;99536.34;8169436;29;20480;-72
2022/05/16 13:21:16;;;;;;;4.10;1.48;;;;;;;24.61;28.79;99544.59;8169424;29;20059;-73
2022/05/16 13:25:19;;;;;;;7.95;1.38;;;;;;;24.77;28.43;99536.75;8179073;29;20054;-72
2022/05/16 13:29:23;;;;;;;5.72;1.42;;;;;;;25.93;28.48;99535.06;8201176;28;20055;-72
2022/05/16 13:33:34;;;;;;;3.92;1.50;;;;;;;26.96;26.11;99522.63;8230725;28;20055;-72
2022/05/16 13:37:44;;;;;;;6.85;1.77;;;;;;;28.32;25.07;99518.00;8197756;28;20195;-73
2022/05/16 13:41:54;;;;;;;6.32;1.40;;;;;;;30.07;23.72;99528.53;8200366;28;20091;-73
2022/05/16 13:46:06;;;;;;;6.22;1.58;;;;;;;31.60;22.92;99514.53;8200683;28;20590;-74
2022/05/16 13:50:21;;;;;;;6.97;1.55;;;;;;;32.77;21.92;99511.84;8200508;28;20050;-72
2022/05/16 13:54:26;;;;;;;4.85;1.67;;;;;;;33.79;21.95;99501.91;8200237;28;20051;-73
2022/05/16 13:58:47;;;;;;;6.03;1.63;;;;;;;34.26;19.88;99506.59;8200101;28;20050;-72
2022/05/16 14:02:55;;;;;;;6.88;1.48;;;;;;;34.40;19.98;99506.03;8228058;28;20097;-74
2022/05/16 14:07:08;;;;;;;6.88;1.60;;;;;;;34.99;19.48;99490.03;8228204;28;20058;-73
2022/05/16 14:11:13;;;;;;;8.07;1.48;;;;;;;35.74;18.53;99493.22;8227970;28;20043;-74
2022/05/16 14:15:23;;;;;;;4.50;1.30;;;;;;;36.59;17.33;99498.41;8228102;28;20046;-74
2022/05/16 14:19:42;;;;;;;5.25;1.80;;;;;;;36.30;17.94;99489.81;8228004;28;20054;-74
2022/05/16 14:24:02;;;;;;;3.85;1.25;;;;;;;36.23;18.26;99490.91;8227932;28;20058;-73
2022/05/16 14:28:17;;;;;;;6.80;1.50;;;;;;;37.49;17.65;99481.47;8228250;28;20055;-73
2022/05/16 14:32:18;;;;;;;4.80;1.60;;;;;;;37.00;17.62;99491.19;8218717;28;20062;-73
2022/05/16 14:36:35;;;;;;;4.43;1.42;;;;;;;37.34;16.49;99480.63;8214585;28;20050;-73
2022/05/16 14:40:42;;;;;;;4.10;1.40;;;;;;;38.38;16.23;99483.84;8214520;28;20078;-73
2022/05/16 14:44:55;;;;;;;6.20;1.50;;;;;;;38.48;15.56;99487.34;8201376;28;20462;-74
2022/05/16 14:48:57;;;;;;;2.88;1.95;;;;;;;39.15;14.92;99485.44;8176794;28;20055;-74
2022/05/16 14:53:18;;;;;;;5.68;1.65;;;;;;;38.94;15.29;99469.78;8182561;28;20126;-73
2022/05/16 14:57:20;;;;;;;4.63;1.40;;;;;;;39.50;14.79;99472.00;8196258;28;20068;-74
2022/05/16 15:05:40;;;;;;;3.92;1.52;;;;;;;40.45;14.12;99459.50;8176103;29;20410;-71
2022/05/16 15:09:41;;;;;;;3.22;1.40;;;;;;;39.54;14.25;99464.09;8176061;28;20052;-72
2022/05/16 15:13:42;;;;;;;5.32;1.70;;;;;;;39.93;14.16;99472.19;8173864;28;20051;-72
2022/05/16 15:17:43;;;;;;;13.80;2.03;;;;;;;39.66;14.24;99460.09;8176571;28;20059;-72
2022/05/16 15:21:46;;;;;;;5.78;1.50;;;;;;;37.52;15.58;99457.94;8201394;28;20044;-71
2022/05/16 15:25:47;;;;;;;5.53;1.48;;;;;;;38.29;15.05;99463.41;8176163;28;20067;-72
2022/05/16 15:29:48;;;;;;;2.80;1.58;;;;;;;38.88;14.06;99470.44;8208915;28;20063;-72
2022/05/16 15:33:49;;;;;;;8.07;1.23;;;;;;;37.56;14.46;99458.53;8192015;28;21021;-71
2022/05/16 15:37:50;;;;;;;3.65;1.40;;;;;;;36.66;15.19;99449.50;8226921;28;20423;-73
2022/05/16 15:41:51;;;;;;;2.67;1.20;;;;;;;35.26;15.99;99447.97;8215993;28;20051;-73
2022/05/16 15:45:52;;;;;;;5.25;1.30;;;;;;;34.24;16.63;99447.41;8198885;28;20056;-71
2022/05/16 15:49:55;;;;;;;5.47;1.45;;;;;;;32.41;18.36;99438.72;8185616;29;20130;-72
2022/05/16 15:53:57;;;;;;;2.70;1.40;;;;;;;32.07;19.23;99430.97;8175231;29;20056;-72
2022/05/16 15:57:58;;;;;;;3.40;1.80;;;;;;;32.52;19.63;99422.38;8173921;28;20062;-73
2022/05/16 16:02:00;;;;;;;8.52;1.60;;;;;;;32.32;20.46;99419.03;8171130;28;20058;-72
2022/05/16 16:10:21;;;;;;;8.50;1.90;;;;;;;30.85;21.70;99409.66;8181230;29;20063;-71
2022/05/16 16:14:22;;;;;;;10.40;2.97;;;;;;;30.37;22.68;99402.88;8169775;29;20138;-71
2022/05/16 16:18:24;;;;;;;6.57;1.75;;;;;;;30.19;23.24;99397.72;8178602;28;20564;-71
2022/05/16 16:22:26;;;;;;;7.57;1.77;;;;;;;30.29;23.51;99401.50;8174806;28;20052;-72
2022/05/16 16:26:27;;;;;;;4.05;1.88;;;;;;;29.48;24.40;99404.06;8189026;28;20103;-72
2022/05/16 16:30:28;;;;;;;5.32;1.88;;;;;;;28.55;25.07;99404.91;8179603;28;20423;-72
2022/05/16 16:34:30;;;;;;;4.50;1.70;;;;;;;27.86;25.56;99402.81;8177434;28;20117;-72
2022/05/16 16:38:31;;;;;;;3.95;1.58;;;;;;;27.72;25.69;99391.88;8170251;28;20443;-76
2022/05/16 16:42:35;;;;;;;8.48;2.25;;;;;;;27.12;26.68;99401.69;8177232;28;20055;-74
2022/05/16 16:46:37;;;;;;;6.18;2.20;;;;;;;26.46;27.10;99395.56;8192469;28;20155;-75
2022/05/16 16:50:38;;;;;;;4.20;2.03;;;;;;;26.06;28.24;99394.25;8174735;29;20070;-75
2022/05/16 16:59:03;;;;;;;10.27;3.70;;;;;;;25.49;29.26;99400.03;8181394;28;20070;-74
2022/05/16 17:03:07;;;;;;;11.40;3.22;;;;;;;25.28;29.69;99394.59;8173483;29;21254;-74
2022/05/16 17:07:09;;;;;;;11.75;4.22;;;;;;;25.00;29.69;99397.44;8184917;28;20130;-74
2022/05/16 17:11:12;;;;;;;16.38;3.35;;;;;;;24.82;30.38;99398.25;8179639;28;20484;-75
2022/05/16 17:15:16;;;;;;;10.40;3.05;;;;;;;24.65;30.95;99396.28;8172828;29;20047;-75
2022/05/16 17:19:16;;;;;;;8.30;3.30;;;;;;;24.45;31.46;99403.38;8182165;28;20043;-74
2022/05/16 17:23:19;;;;;;;8.98;2.90;;;;;;;24.20;31.72;99408.09;8155289;28;20052;-75
2022/05/16 17:27:20;;;;;;;6.30;2.65;;;;;;;23.97;32.76;99406.44;8178700;28;20056;-75
2022/05/16 17:31:24;;;;;;;12.57;4.75;;;;;;;23.71;33.10;99409.53;8177597;28;20058;-74
2022/05/16 17:35:25;;;;;;;14.55;8.05;;;;;;;23.51;33.69;99405.53;8177294;28;20070;-75
2022/05/16 17:39:26;;;;;;;10.93;4.72;;;;;;;23.31;34.26;99406.97;8183009;28;20062;-75
2022/05/16 17:43:27;;;;;;;8.57;3.80;;;;;;;23.19;34.55;99404.56;8179203;28;20082;-74
2022/05/16 17:47:28;;;;;;;8.90;2.85;;;;;;;23.00;35.06;99409.16;8179018;28;20112;-73
2022/05/16 17:51:32;;;;;;;9.25;2.35;;;;;;;22.81;35.77;99417.69;8175888;28;20186;-74
2022/05/16 17:55:33;;;;;;;6.63;2.72;;;;;;;22.65;35.83;99422.66;8195474;28;20046;-73
2022/05/16 17:59:34;;;;;;;7.78;3.40;;;;;;;22.60;36.09;99423.00;8181355;28;20470;-73
2022/05/16 18:03:35;;;;;;;12.70;5.03;;;;;;;22.36;36.61;99423.59;8178033;28;20427;-73
2022/05/16 18:07:37;;;;;;;13.70;5.78;;;;;;;22.10;37.25;99428.03;8171472;29;20048;-74
2022/05/16 18:15:58;;;;;;;13.98;4.82;;;;;;;21.69;37.91;99434.63;8179997;28;20040;-72
2022/05/16 18:20:01;;;;;;;10.50;3.55;;;;;;;21.49;38.53;99443.03;8152084;29;20067;-74
2022/05/16 18:24:09;;;;;;;16.13;3.38;;;;;;;21.33;38.58;99444.38;8188304;29;20070;-73
2022/05/16 18:28:11;;;;;;;;;;;;;;;21.15;38.55;99438.63;8218240;28;20052;-73
2022/05/16 18:32:14;;;;;;;11.13;3.08;;;;;;;21.03;38.20;99441.59;8173573;29;19945;-73
2022/05/16 18:36:16;;;;;;;8.80;2.88;;;;;;;20.91;38.22;99450.03;8182391;28;20040;-73
2022/05/16 18:40:17;;;;;;;6.97;1.92;;;;;;;20.76;38.09;99464.69;8186514;28;20524;-72
2022/05/16 18:52:59;;;;;;;6.15;1.92;;;;;;;20.44;37.92;99464.94;8189957;29;20415;-72
2022/05/16 18:57:01;;;;;;;9.23;2.10;;;;;;;20.34;37.72;99476.53;8186103;28;20047;-73
2022/05/16 19:01:03;;;;;;;8.38;2.10;;;;;;;20.27;37.91;99476.34;8184604;28;20070;-73
2022/05/16 19:05:05;;;;;;;10.20;2.30;;;;;;;20.16;37.71;99486.34;8182410;29;20091;-73
2022/05/16 19:09:07;;;;;;;7.45;2.60;;;;;;;20.08;37.93;99484.63;8202875;28;20054;-72
2022/05/16 19:13:09;;;;;;;7.53;2.45;;;;;;;19.96;38.04;99482.03;8202161;28;20059;-72
2022/05/16 19:17:11;;;;;;;7.63;2.13;;;;;;;19.90;37.71;99491.69;8195770;28;20048;-73
2022/05/16 19:21:15;;;;;;;9.45;2.47;;;;;;;19.88;37.34;99491.28;8187103;29;20114;-73
2022/05/16 19:25:18;;;;;;;7.03;2.25;;;;;;;19.78;37.18;99485.19;8173373;28;20427;-73
2022/05/16 19:33:41;;;;;;;9.43;2.85;;;;;;;19.64;36.91;99489.59;8190942;28;20130;-72
2022/05/16 19:37:43;;;;;;;7.60;2.60;;;;;;;19.51;36.77;99483.44;8192897;28;20051;-73
2022/05/16 19:41:50;;;;;;;6.75;2.50;;;;;;;19.47;36.61;99482.59;8208508;28;20054;-72
2022/05/16 19:45:53;;;;;;;7.55;2.13;;;;;;;19.40;36.75;99483.19;8182415;28;20048;-73
2022/05/16 19:49:54;;;;;;;7.10;2.53;;;;;;;19.36;36.55;99481.53;8189383;28;20043;-73
2022/05/16 19:53:58;;;;;;;4.68;1.95;;;;;;;19.30;36.60;99482.94;8165115;29;20053;-73
2022/05/16 19:58:00;;;;;;;5.43;2.17;;;;;;;19.27;36.52;99478.19;8184146;28;20210;-73
2022/05/16 20:02:01;;;;;;;9.90;3.47;;;;;;;19.23;36.15;99482.81;8193209;28;20138;-73
2022/05/16 20:06:03;;;;;;;8.07;2.40;;;;;;;19.17;35.92;99478.75;8184048;28;20051;-74
2022/05/16 20:10:05;;;;;;;5.18;2.28;;;;;;;19.09;36.25;99482.50;8173092;29;20063;-74
2022/05/16 20:14:06;;;;;;;8.93;2.67;;;;;;;19.02;36.35;99485.06;8182255;28;20050;-72
2022/05/16 20:18:07;;;;;;;6.47;2.30;;;;;;;18.92;36.60;99489.94;8180886;28;20142;-72